Airfield :
LOGIN :

Register | Disclaimer

   EN    FR    IT 

 










Legend :    VFR   Marginal VFR   IFR   Intensive IFR   Very Intensive IFR
Visi :
Ceiling :
>= 8 km
>= 3000ft
5 to 8 km
1000 to 3000 ft
1500m to 5 km
500 to 1000 ft
800 to 1500m
200 to 500 ft
< 800m
< 200 ft
Symbols :   Thunderstorms  Fog  Heavy snow  Heavy precipitations  Wind > 20 kt
SIGMETs :     Misc.  Thunderstorms  Icing  Turbulence  Mountain Waves  Volcanic Ashes






- Airport Elevation : 141 ft
- IATA code : SKS


EKSP - Srydstrup Vojens

CURRENT METAR :
  • 040820Z 22007KT 9999 -SHRA FEW018 SCT035TCU BKN079 15/12 Q1014 NOSIG

EXPIRED METARs :
  • 040750Z 22005KT 190V260 9999 FEW016 BKN079 15/12 Q1015 NOSIG
  • 040720Z 22004KT 180V260 9999 FEW023 SCT095 15/12 Q1014 NOSIG
  • 040650Z 23006KT 9999 FEW023 SCT095 14/12 Q1014 NOSIG
  • 040620Z 24005KT 210V270 9999 FEW023 SCT070 14/12 Q1014 NOSIG
  • 040550Z 24002KT 9999 FEW034 FEW067 12/11 Q1014 NOSIG

TAF TAF EKSP
Valid from the 04 at 06:00 until the 05 at 06:00 UTC


040501Z 0406/0506 VRB03KT 9999 FEW030
BECMG 0406/0409 28010KT
TEMPO 0406/0412 -SHRA SCT020TCU
BECMG 0421/0423 18005KT



MET'MAP, your aeronautical weather chart ! - Copyright ORBIFLY December 2007 - Disclaimer

ORBIFLY MET'MAP TEAM :

Programming & Development : Alexandra Zaïnal
Concept & original design : Baudouin d'Aumeries
Assistance for programming : Marc-Olivier Méhu
Technical & hardware support : Manuel Goepfert

Contact : metmap@orbifly.com




SOURCES & CREDITS :

   NOAA